sensor_id;sensor_type;location;lat;lon;timestamp;P1;durP1;ratioP1;P2;durP2;ratioP2
76903;SDS011;65865;51.698;-0.292;2024-01-30T00:01:39;4.95;;;2.28;;
76903;SDS011;65865;51.698;-0.292;2024-01-30T00:04:05;3.75;;;1.83;;
76903;SDS011;65865;51.698;-0.292;2024-01-30T00:06:31;3.80;;;2.25;;
76903;SDS011;65865;51.698;-0.292;2024-01-30T00:08:57;3.72;;;1.95;;
76903;SDS011;65865;51.698;-0.292;2024-01-30T00:11:24;3.08;;;2.53;;
76903;SDS011;65865;51.698;-0.292;2024-01-30T00:14:08;3.97;;;2.15;;
76903;SDS011;65865;51.698;-0.292;2024-01-30T00:16:35;3.70;;;2.33;;
76903;SDS011;65865;51.698;-0.292;2024-01-30T00:19:01;3.08;;;2.00;;
76903;SDS011;65865;51.698;-0.292;2024-01-30T00:21:27;3.63;;;2.20;;
76903;SDS011;65865;51.698;-0.292;2024-01-30T00:23:54;3.45;;;2.00;;
76903;SDS011;65865;51.698;-0.292;2024-01-30T00:26:21;2.80;;;1.92;;
76903;SDS011;65865;51.698;-0.292;2024-01-30T00:28:49;4.22;;;1.83;;
76903;SDS011;65865;51.698;-0.292;2024-01-30T00:31:17;2.75;;;1.95;;
76903;SDS011;65865;51.698;-0.292;2024-01-30T00:36:10;2.15;;;1.85;;
76903;SDS011;65865;51.698;-0.292;2024-01-30T00:38:37;3.22;;;1.90;;
76903;SDS011;65865;51.698;-0.292;2024-01-30T00:41:04;3.60;;;2.22;;
76903;SDS011;65865;51.698;-0.292;2024-01-30T00:43:30;4.13;;;2.00;;
76903;SDS011;65865;51.698;-0.292;2024-01-30T00:45:56;3.40;;;1.98;;
76903;SDS011;65865;51.698;-0.292;2024-01-30T00:48:23;3.00;;;1.80;;
76903;SDS011;65865;51.698;-0.292;2024-01-30T00:50:49;2.58;;;1.63;;
76903;SDS011;65865;51.698;-0.292;2024-01-30T00:53:15;3.42;;;2.25;;
76903;SDS011;65865;51.698;-0.292;2024-01-30T00:55:41;3.70;;;2.15;;
76903;SDS011;65865;51.698;-0.292;2024-01-30T00:58:09;3.30;;;1.80;;
76903;SDS011;65865;51.698;-0.292;2024-01-30T01:03:02;2.50;;;1.92;;
76903;SDS011;65865;51.698;-0.292;2024-01-30T01:05:28;3.45;;;2.25;;
76903;SDS011;65865;51.698;-0.292;2024-01-30T01:07:54;3.58;;;1.77;;
76903;SDS011;65865;51.698;-0.292;2024-01-30T01:10:20;3.70;;;2.05;;
76903;SDS011;65865;51.698;-0.292;2024-01-30T01:12:47;2.65;;;1.60;;
76903;SDS011;65865;51.698;-0.292;2024-01-30T01:15:14;2.88;;;1.92;;
76903;SDS011;65865;51.698;-0.292;2024-01-30T01:17:49;2.50;;;1.83;;
76903;SDS011;65865;51.698;-0.292;2024-01-30T01:20:15;2.80;;;1.58;;
76903;SDS011;65865;51.698;-0.292;2024-01-30T01:22:42;2.45;;;1.90;;
76903;SDS011;65865;51.698;-0.292;2024-01-30T01:25:08;4.38;;;2.03;;
76903;SDS011;65865;51.698;-0.292;2024-01-30T01:27:36;3.53;;;1.83;;
76903;SDS011;65865;51.698;-0.292;2024-01-30T01:30:10;3.40;;;1.70;;
76903;SDS011;65865;51.698;-0.292;2024-01-30T01:32:38;3.10;;;1.55;;
76903;SDS011;65865;51.698;-0.292;2024-01-30T01:35:09;3.35;;;1.95;;
76903;SDS011;65865;51.698;-0.292;2024-01-30T01:37:36;3.20;;;1.95;;
76903;SDS011;65865;51.698;-0.292;2024-01-30T01:40:02;3.33;;;1.55;;
76903;SDS011;65865;51.698;-0.292;2024-01-30T01:42:28;2.38;;;1.70;;
76903;SDS011;65865;51.698;-0.292;2024-01-30T01:44:54;2.17;;;1.70;;
76903;SDS011;65865;51.698;-0.292;2024-01-30T01:47:20;2.40;;;1.80;;
76903;SDS011;65865;51.698;-0.292;2024-01-30T01:49:46;3.47;;;1.63;;
76903;SDS011;65865;51.698;-0.292;2024-01-30T01:52:12;2.20;;;1.42;;
76903;SDS011;65865;51.698;-0.292;2024-01-30T01:54:38;2.60;;;1.67;;
76903;SDS011;65865;51.698;-0.292;2024-01-30T01:57:05;2.72;;;1.50;;
76903;SDS011;65865;51.698;-0.292;2024-01-30T01:59:32;1.60;;;1.27;;
76903;SDS011;65865;51.698;-0.292;2024-01-30T02:01:58;3.80;;;1.60;;
76903;SDS011;65865;51.698;-0.292;2024-01-30T02:04:24;2.78;;;1.67;;
76903;SDS011;65865;51.698;-0.292;2024-01-30T02:06:52;3.30;;;1.60;;
76903;SDS011;65865;51.698;-0.292;2024-01-30T02:09:18;2.13;;;1.40;;
76903;SDS011;65865;51.698;-0.292;2024-01-30T02:11:44;2.00;;;1.20;;
76903;SDS011;65865;51.698;-0.292;2024-01-30T02:14:10;3.13;;;2.92;;
76903;SDS011;65865;51.698;-0.292;2024-01-30T02:16:36;2.65;;;1.48;;
76903;SDS011;65865;51.698;-0.292;2024-01-30T02:19:02;2.35;;;1.55;;
76903;SDS011;65865;51.698;-0.292;2024-01-30T02:21:30;1.77;;;1.25;;
76903;SDS011;65865;51.698;-0.292;2024-01-30T02:23:56;1.95;;;1.33;;
76903;SDS011;65865;51.698;-0.292;2024-01-30T02:26:23;2.22;;;1.38;;
76903;SDS011;65865;51.698;-0.292;2024-01-30T02:28:49;2.17;;;1.33;;
76903;SDS011;65865;51.698;-0.292;2024-01-30T02:31:15;1.90;;;1.13;;
76903;SDS011;65865;51.698;-0.292;2024-01-30T02:33:42;3.05;;;1.23;;
76903;SDS011;65865;51.698;-0.292;2024-01-30T02:36:08;1.48;;;1.10;;
76903;SDS011;65865;51.698;-0.292;2024-01-30T02:38:36;2.85;;;1.40;;
76903;SDS011;65865;51.698;-0.292;2024-01-30T02:41:02;1.48;;;0.93;;
76903;SDS011;65865;51.698;-0.292;2024-01-30T02:43:28;1.90;;;1.13;;
76903;SDS011;65865;51.698;-0.292;2024-01-30T02:45:55;1.80;;;1.33;;
76903;SDS011;65865;51.698;-0.292;2024-01-30T02:48:23;2.42;;;1.23;;
76903;SDS011;65865;51.698;-0.292;2024-01-30T02:50:50;1.83;;;1.38;;
76903;SDS011;65865;51.698;-0.292;2024-01-30T02:53:16;2.45;;;1.50;;
76903;SDS011;65865;51.698;-0.292;2024-01-30T02:55:43;2.90;;;1.73;;
76903;SDS011;65865;51.698;-0.292;2024-01-30T02:58:10;3.22;;;1.33;;
76903;SDS011;65865;51.698;-0.292;2024-01-30T03:00:36;2.17;;;1.40;;
76903;SDS011;65865;51.698;-0.292;2024-01-30T03:03:02;1.35;;;1.08;;
76903;SDS011;65865;51.698;-0.292;2024-01-30T03:05:29;1.90;;;0.95;;
76903;SDS011;65865;51.698;-0.292;2024-01-30T03:07:55;2.28;;;1.20;;
76903;SDS011;65865;51.698;-0.292;2024-01-30T03:10:21;2.47;;;1.60;;
76903;SDS011;65865;51.698;-0.292;2024-01-30T03:12:47;3.63;;;1.38;;
76903;SDS011;65865;51.698;-0.292;2024-01-30T03:15:13;2.13;;;1.35;;
76903;SDS011;65865;51.698;-0.292;2024-01-30T03:17:39;2.22;;;1.40;;
76903;SDS011;65865;51.698;-0.292;2024-01-30T03:20:05;2.03;;;1.08;;
76903;SDS011;65865;51.698;-0.292;2024-01-30T03:22:32;1.88;;;1.38;;
76903;SDS011;65865;51.698;-0.292;2024-01-30T03:24:59;1.83;;;1.20;;
76903;SDS011;65865;51.698;-0.292;2024-01-30T03:27:25;2.58;;;1.45;;
76903;SDS011;65865;51.698;-0.292;2024-01-30T03:29:51;2.10;;;1.88;;
76903;SDS011;65865;51.698;-0.292;2024-01-30T03:32:17;1.33;;;1.20;;
76903;SDS011;65865;51.698;-0.292;2024-01-30T03:34:44;1.83;;;1.17;;
76903;SDS011;65865;51.698;-0.292;2024-01-30T03:37:11;1.48;;;1.20;;
76903;SDS011;65865;51.698;-0.292;2024-01-30T03:39:37;2.65;;;1.60;;
76903;SDS011;65865;51.698;-0.292;2024-01-30T03:42:03;2.42;;;1.38;;
76903;SDS011;65865;51.698;-0.292;2024-01-30T03:44:29;0.88;;;0.30;;
76903;SDS011;65865;51.698;-0.292;2024-01-30T03:46:55;1.58;;;1.17;;
76903;SDS011;65865;51.698;-0.292;2024-01-30T03:49:21;1.98;;;1.17;;
76903;SDS011;65865;51.698;-0.292;2024-01-30T03:51:47;1.55;;;1.13;;
76903;SDS011;65865;51.698;-0.292;2024-01-30T03:54:14;2.35;;;1.05;;
76903;SDS011;65865;51.698;-0.292;2024-01-30T03:56:40;1.50;;;1.10;;
76903;SDS011;65865;51.698;-0.292;2024-01-30T03:59:06;1.63;;;1.27;;
76903;SDS011;65865;51.698;-0.292;2024-01-30T04:01:32;1.25;;;1.10;;
76903;SDS011;65865;51.698;-0.292;2024-01-30T04:03:58;2.45;;;1.30;;
76903;SDS011;65865;51.698;-0.292;2024-01-30T04:06:26;2.70;;;1.33;;
76903;SDS011;65865;51.698;-0.292;2024-01-30T04:08:52;1.17;;;1.00;;
76903;SDS011;65865;51.698;-0.292;2024-01-30T04:11:18;1.67;;;1.00;;
76903;SDS011;65865;51.698;-0.292;2024-01-30T04:13:47;1.73;;;1.02;;
76903;SDS011;65865;51.698;-0.292;2024-01-30T04:16:22;1.95;;;1.30;;
76903;SDS011;65865;51.698;-0.292;2024-01-30T04:18:50;1.45;;;1.00;;
76903;SDS011;65865;51.698;-0.292;2024-01-30T04:21:17;1.70;;;1.13;;
76903;SDS011;65865;51.698;-0.292;2024-01-30T04:23:44;0.88;;;0.85;;
76903;SDS011;65865;51.698;-0.292;2024-01-30T04:26:10;1.55;;;1.02;;
76903;SDS011;65865;51.698;-0.292;2024-01-30T04:28:37;1.13;;;0.98;;
76903;SDS011;65865;51.698;-0.292;2024-01-30T04:31:03;1.23;;;1.13;;
76903;SDS011;65865;51.698;-0.292;2024-01-30T04:33:29;0.90;;;0.70;;
76903;SDS011;65865;51.698;-0.292;2024-01-30T04:35:55;1.35;;;0.90;;
76903;SDS011;65865;51.698;-0.292;2024-01-30T04:40:57;1.67;;;1.27;;
76903;SDS011;65865;51.698;-0.292;2024-01-30T04:43:23;1.38;;;0.73;;
76903;SDS011;65865;51.698;-0.292;2024-01-30T04:45:51;1.52;;;1.10;;
76903;SDS011;65865;51.698;-0.292;2024-01-30T04:48:17;1.27;;;0.90;;
76903;SDS011;65865;51.698;-0.292;2024-01-30T04:50:43;1.40;;;0.85;;
76903;SDS011;65865;51.698;-0.292;2024-01-30T04:53:09;3.70;;;1.05;;
76903;SDS011;65865;51.698;-0.292;2024-01-30T04:55:49;1.60;;;1.08;;
76903;SDS011;65865;51.698;-0.292;2024-01-30T04:58:15;1.40;;;1.10;;
76903;SDS011;65865;51.698;-0.292;2024-01-30T05:00:41;1.25;;;0.82;;
76903;SDS011;65865;51.698;-0.292;2024-01-30T05:03:08;1.42;;;1.33;;
76903;SDS011;65865;51.698;-0.292;2024-01-30T05:05:48;1.35;;;1.17;;
76903;SDS011;65865;51.698;-0.292;2024-01-30T05:08:15;1.75;;;1.20;;
76903;SDS011;65865;51.698;-0.292;2024-01-30T05:10:42;1.52;;;0.95;;
76903;SDS011;65865;51.698;-0.292;2024-01-30T05:13:10;1.17;;;1.08;;
76903;SDS011;65865;51.698;-0.292;2024-01-30T05:18:15;1.38;;;1.10;;
76903;SDS011;65865;51.698;-0.292;2024-01-30T05:20:42;1.10;;;1.00;;
76903;SDS011;65865;51.698;-0.292;2024-01-30T05:23:08;1.13;;;1.08;;
76903;SDS011;65865;51.698;-0.292;2024-01-30T05:25:34;1.00;;;0.85;;
76903;SDS011;65865;51.698;-0.292;2024-01-30T05:28:02;1.42;;;1.05;;
76903;SDS011;65865;51.698;-0.292;2024-01-30T05:30:28;0.82;;;0.82;;
76903;SDS011;65865;51.698;-0.292;2024-01-30T05:32:54;1.83;;;0.73;;
76903;SDS011;65865;51.698;-0.292;2024-01-30T05:35:21;1.00;;;0.90;;
76903;SDS011;65865;51.698;-0.292;2024-01-30T05:37:50;0.82;;;0.82;;
76903;SDS011;65865;51.698;-0.292;2024-01-30T05:40:16;1.73;;;0.88;;
76903;SDS011;65865;51.698;-0.292;2024-01-30T05:42:42;2.03;;;1.17;;
76903;SDS011;65865;51.698;-0.292;2024-01-30T05:45:08;0.80;;;0.60;;
76903;SDS011;65865;51.698;-0.292;2024-01-30T05:47:35;0.90;;;0.82;;
76903;SDS011;65865;51.698;-0.292;2024-01-30T05:50:01;1.27;;;1.17;;
76903;SDS011;65865;51.698;-0.292;2024-01-30T05:52:28;0.98;;;0.95;;
76903;SDS011;65865;51.698;-0.292;2024-01-30T05:54:54;1.48;;;0.90;;
76903;SDS011;65865;51.698;-0.292;2024-01-30T05:57:20;1.20;;;1.10;;
76903;SDS011;65865;51.698;-0.292;2024-01-30T05:59:46;1.05;;;0.95;;
76903;SDS011;65865;51.698;-0.292;2024-01-30T06:02:13;1.33;;;1.00;;
76903;SDS011;65865;51.698;-0.292;2024-01-30T06:04:39;1.63;;;0.85;;
76903;SDS011;65865;51.698;-0.292;2024-01-30T06:07:05;1.15;;;0.88;;
76903;SDS011;65865;51.698;-0.292;2024-01-30T06:09:31;1.10;;;0.93;;
76903;SDS011;65865;51.698;-0.292;2024-01-30T06:11:57;1.05;;;0.95;;
76903;SDS011;65865;51.698;-0.292;2024-01-30T06:14:23;1.10;;;1.00;;
76903;SDS011;65865;51.698;-0.292;2024-01-30T06:16:49;0.65;;;0.63;;
76903;SDS011;65865;51.698;-0.292;2024-01-30T06:19:15;1.23;;;0.93;;
76903;SDS011;65865;51.698;-0.292;2024-01-30T06:21:42;0.98;;;0.95;;
76903;SDS011;65865;51.698;-0.292;2024-01-30T06:24:08;1.73;;;1.63;;
76903;SDS011;65865;51.698;-0.292;2024-01-30T06:26:34;0.85;;;0.30;;
76903;SDS011;65865;51.698;-0.292;2024-01-30T06:29:02;0.80;;;0.73;;
76903;SDS011;65865;51.698;-0.292;2024-01-30T06:31:28;1.10;;;1.00;;
76903;SDS011;65865;51.698;-0.292;2024-01-30T06:33:55;0.77;;;0.68;;
76903;SDS011;65865;51.698;-0.292;2024-01-30T06:36:21;0.73;;;0.73;;
76903;SDS011;65865;51.698;-0.292;2024-01-30T06:38:47;0.80;;;0.80;;
76903;SDS011;65865;51.698;-0.292;2024-01-30T06:41:13;0.85;;;0.73;;
76903;SDS011;65865;51.698;-0.292;2024-01-30T06:43:39;1.35;;;0.90;;
76903;SDS011;65865;51.698;-0.292;2024-01-30T06:46:06;1.15;;;0.88;;
76903;SDS011;65865;51.698;-0.292;2024-01-30T06:48:32;1.13;;;0.88;;
76903;SDS011;65865;51.698;-0.292;2024-01-30T06:50:59;0.80;;;0.80;;
76903;SDS011;65865;51.698;-0.292;2024-01-30T06:53:25;0.70;;;0.70;;
76903;SDS011;65865;51.698;-0.292;2024-01-30T06:55:51;0.80;;;0.68;;
76903;SDS011;65865;51.698;-0.292;2024-01-30T06:58:21;0.52;;;0.50;;
76903;SDS011;65865;51.698;-0.292;2024-01-30T07:00:48;0.30;;;0.20;;
76903;SDS011;65865;51.698;-0.292;2024-01-30T07:03:14;0.80;;;0.80;;
76903;SDS011;65865;51.698;-0.292;2024-01-30T07:05:40;0.90;;;0.65;;
76903;SDS011;65865;51.698;-0.292;2024-01-30T07:08:06;0.95;;;0.95;;
76903;SDS011;65865;51.698;-0.292;2024-01-30T07:10:34;0.93;;;0.80;;
76903;SDS011;65865;51.698;-0.292;2024-01-30T07:13:01;1.13;;;0.68;;
76903;SDS011;65865;51.698;-0.292;2024-01-30T07:15:35;1.00;;;0.95;;
76903;SDS011;65865;51.698;-0.292;2024-01-30T07:18:02;1.15;;;0.80;;
76903;SDS011;65865;51.698;-0.292;2024-01-30T07:20:29;0.85;;;0.85;;
76903;SDS011;65865;51.698;-0.292;2024-01-30T07:22:57;0.75;;;0.75;;
76903;SDS011;65865;51.698;-0.292;2024-01-30T07:25:23;1.25;;;0.80;;
76903;SDS011;65865;51.698;-0.292;2024-01-30T07:27:55;0.90;;;0.90;;
76903;SDS011;65865;51.698;-0.292;2024-01-30T07:30:21;1.08;;;1.08;;
76903;SDS011;65865;51.698;-0.292;2024-01-30T07:32:51;0.80;;;0.80;;
76903;SDS011;65865;51.698;-0.292;2024-01-30T07:35:18;0.82;;;0.82;;
76903;SDS011;65865;51.698;-0.292;2024-01-30T07:45:52;0.90;;;0.77;;
76903;SDS011;65865;51.698;-0.292;2024-01-30T07:48:18;0.90;;;0.90;;
76903;SDS011;65865;51.698;-0.292;2024-01-30T07:50:44;1.08;;;0.98;;
76903;SDS011;65865;51.698;-0.292;2024-01-30T07:53:10;0.88;;;0.88;;
76903;SDS011;65865;51.698;-0.292;2024-01-30T07:55:37;0.73;;;0.73;;
76903;SDS011;65865;51.698;-0.292;2024-01-30T07:58:04;0.70;;;0.70;;
76903;SDS011;65865;51.698;-0.292;2024-01-30T08:00:35;1.02;;;1.02;;
76903;SDS011;65865;51.698;-0.292;2024-01-30T08:03:02;0.90;;;0.85;;
76903;SDS011;65865;51.698;-0.292;2024-01-30T08:05:28;0.88;;;0.80;;
76903;SDS011;65865;51.698;-0.292;2024-01-30T08:07:54;0.90;;;0.90;;
76903;SDS011;65865;51.698;-0.292;2024-01-30T08:10:20;0.93;;;0.77;;
76903;SDS011;65865;51.698;-0.292;2024-01-30T08:12:49;0.95;;;0.95;;
76903;SDS011;65865;51.698;-0.292;2024-01-30T08:15:18;1.25;;;1.17;;
76903;SDS011;65865;51.698;-0.292;2024-01-30T08:22:46;1.40;;;1.33;;
76903;SDS011;65865;51.698;-0.292;2024-01-30T08:25:12;0.90;;;0.90;;
76903;SDS011;65865;51.698;-0.292;2024-01-30T08:27:40;0.65;;;0.52;;
76903;SDS011;65865;51.698;-0.292;2024-01-30T08:30:08;0.60;;;0.60;;
76903;SDS011;65865;51.698;-0.292;2024-01-30T08:32:36;0.88;;;0.88;;
76903;SDS011;65865;51.698;-0.292;2024-01-30T08:35:02;0.88;;;0.80;;
76903;SDS011;65865;51.698;-0.292;2024-01-30T08:37:28;1.02;;;0.90;;
76903;SDS011;65865;51.698;-0.292;2024-01-30T08:39:54;1.17;;;0.60;;
76903;SDS011;65865;51.698;-0.292;2024-01-30T08:42:20;0.73;;;0.73;;
76903;SDS011;65865;51.698;-0.292;2024-01-30T08:45:03;0.73;;;0.73;;
76903;SDS011;65865;51.698;-0.292;2024-01-30T08:47:31;0.88;;;0.88;;
76903;SDS011;65865;51.698;-0.292;2024-01-30T08:49:58;0.90;;;0.85;;
76903;SDS011;65865;51.698;-0.292;2024-01-30T08:52:24;1.25;;;1.15;;
76903;SDS011;65865;51.698;-0.292;2024-01-30T08:54:56;1.52;;;0.85;;
76903;SDS011;65865;51.698;-0.292;2024-01-30T08:57:23;1.10;;;0.80;;
76903;SDS011;65865;51.698;-0.292;2024-01-30T08:59:49;1.45;;;1.35;;
76903;SDS011;65865;51.698;-0.292;2024-01-30T09:02:17;1.08;;;0.90;;
76903;SDS011;65865;51.698;-0.292;2024-01-30T09:04:44;0.95;;;0.88;;
76903;SDS011;65865;51.698;-0.292;2024-01-30T09:07:17;1.10;;;1.00;;
76903;SDS011;65865;51.698;-0.292;2024-01-30T09:09:44;1.38;;;0.90;;
76903;SDS011;65865;51.698;-0.292;2024-01-30T09:12:11;0.75;;;0.60;;
76903;SDS011;65865;51.698;-0.292;2024-01-30T09:14:40;0.80;;;0.80;;
76903;SDS011;65865;51.698;-0.292;2024-01-30T09:17:06;0.43;;;0.43;;
76903;SDS011;65865;51.698;-0.292;2024-01-30T09:19:37;1.52;;;0.93;;
76903;SDS011;65865;51.698;-0.292;2024-01-30T09:22:03;0.90;;;0.90;;
76903;SDS011;65865;51.698;-0.292;2024-01-30T09:24:30;1.05;;;0.73;;
76903;SDS011;65865;51.698;-0.292;2024-01-30T09:26:58;0.88;;;0.60;;
76903;SDS011;65865;51.698;-0.292;2024-01-30T09:29:24;1.30;;;1.10;;
76903;SDS011;65865;51.698;-0.292;2024-01-30T09:31:50;2.85;;;1.25;;
76903;SDS011;65865;51.698;-0.292;2024-01-30T09:34:16;3.50;;;1.40;;
76903;SDS011;65865;51.698;-0.292;2024-01-30T09:36:42;1.83;;;1.42;;
76903;SDS011;65865;51.698;-0.292;2024-01-30T09:39:08;1.52;;;0.80;;
76903;SDS011;65865;51.698;-0.292;2024-01-30T09:41:43;2.50;;;1.25;;
76903;SDS011;65865;51.698;-0.292;2024-01-30T09:44:11;1.00;;;0.88;;
76903;SDS011;65865;51.698;-0.292;2024-01-30T09:49:14;2.40;;;1.25;;
76903;SDS011;65865;51.698;-0.292;2024-01-30T09:51:42;2.05;;;1.40;;
76903;SDS011;65865;51.698;-0.292;2024-01-30T10:02:12;1.73;;;0.98;;
76903;SDS011;65865;51.698;-0.292;2024-01-30T10:05:26;1.70;;;1.10;;
76903;SDS011;65865;51.698;-0.292;2024-01-30T10:08:20;1.10;;;1.00;;
76903;SDS011;65865;51.698;-0.292;2024-01-30T10:10:48;1.75;;;1.33;;
76903;SDS011;65865;51.698;-0.292;2024-01-30T10:13:34;1.67;;;0.88;;
76903;SDS011;65865;51.698;-0.292;2024-01-30T10:16:24;1.40;;;0.95;;
76903;SDS011;65865;51.698;-0.292;2024-01-30T10:21:29;1.75;;;1.02;;
76903;SDS011;65865;51.698;-0.292;2024-01-30T10:23:55;1.27;;;0.88;;
76903;SDS011;65865;51.698;-0.292;2024-01-30T10:26:21;2.45;;;0.75;;
76903;SDS011;65865;51.698;-0.292;2024-01-30T10:28:48;1.70;;;0.80;;
76903;SDS011;65865;51.698;-0.292;2024-01-30T11:10:45;1.20;;;0.60;;
76903;SDS011;65865;51.698;-0.292;2024-01-30T11:43:39;1.95;;;0.82;;
76903;SDS011;65865;51.698;-0.292;2024-01-30T11:46:47;1.20;;;1.10;;
76903;SDS011;65865;51.698;-0.292;2024-01-30T11:52:39;1.63;;;0.70;;
76903;SDS011;65865;51.698;-0.292;2024-01-30T11:55:06;1.58;;;1.05;;
76903;SDS011;65865;51.698;-0.292;2024-01-30T11:57:33;1.05;;;0.80;;
76903;SDS011;65865;51.698;-0.292;2024-01-30T12:24:44;1.45;;;0.80;;
76903;SDS011;65865;51.698;-0.292;2024-01-30T12:29:41;1.52;;;0.70;;
76903;SDS011;65865;51.698;-0.292;2024-01-30T12:32:14;0.93;;;0.80;;
76903;SDS011;65865;51.698;-0.292;2024-01-30T12:34:48;1.40;;;0.90;;
76903;SDS011;65865;51.698;-0.292;2024-01-30T12:37:21;2.13;;;1.30;;
76903;SDS011;65865;51.698;-0.292;2024-01-30T12:40:03;1.15;;;0.93;;
76903;SDS011;65865;51.698;-0.292;2024-01-30T12:42:51;1.17;;;0.82;;
76903;SDS011;65865;51.698;-0.292;2024-01-30T12:45:26;2.20;;;0.88;;
76903;SDS011;65865;51.698;-0.292;2024-01-30T12:48:11;1.08;;;0.82;;
76903;SDS011;65865;51.698;-0.292;2024-01-30T12:50:37;2.25;;;0.85;;
76903;SDS011;65865;51.698;-0.292;2024-01-30T12:53:05;1.73;;;0.80;;
76903;SDS011;65865;51.698;-0.292;2024-01-30T12:58:05;1.30;;;0.93;;
76903;SDS011;65865;51.698;-0.292;2024-01-30T13:00:51;1.15;;;0.85;;
76903;SDS011;65865;51.698;-0.292;2024-01-30T13:03:17;1.05;;;0.90;;
76903;SDS011;65865;51.698;-0.292;2024-01-30T13:08:13;0.80;;;0.63;;
76903;SDS011;65865;51.698;-0.292;2024-01-30T13:13:05;1.17;;;0.85;;
76903;SDS011;65865;51.698;-0.292;2024-01-30T13:15:42;0.80;;;0.75;;
76903;SDS011;65865;51.698;-0.292;2024-01-30T13:18:08;1.70;;;1.20;;
76903;SDS011;65865;51.698;-0.292;2024-01-30T13:20:35;1.15;;;0.95;;
76903;SDS011;65865;51.698;-0.292;2024-01-30T13:23:02;1.52;;;1.02;;
76903;SDS011;65865;51.698;-0.292;2024-01-30T13:25:29;1.15;;;1.00;;
76903;SDS011;65865;51.698;-0.292;2024-01-30T13:27:55;4.03;;;0.80;;
76903;SDS011;65865;51.698;-0.292;2024-01-30T13:30:22;1.10;;;0.98;;
76903;SDS011;65865;51.698;-0.292;2024-01-30T13:56:11;0.75;;;0.75;;
76903;SDS011;65865;51.698;-0.292;2024-01-30T13:58:37;1.40;;;0.80;;
76903;SDS011;65865;51.698;-0.292;2024-01-30T14:01:03;1.05;;;0.60;;
76903;SDS011;65865;51.698;-0.292;2024-01-30T14:03:29;1.27;;;0.73;;
76903;SDS011;65865;51.698;-0.292;2024-01-30T14:05:55;0.95;;;0.93;;
76903;SDS011;65865;51.698;-0.292;2024-01-30T14:08:22;1.13;;;0.70;;
76903;SDS011;65865;51.698;-0.292;2024-01-30T14:10:51;0.80;;;0.77;;
76903;SDS011;65865;51.698;-0.292;2024-01-30T14:13:17;1.35;;;0.75;;
76903;SDS011;65865;51.698;-0.292;2024-01-30T14:15:44;0.77;;;0.75;;
76903;SDS011;65865;51.698;-0.292;2024-01-30T14:18:10;1.00;;;0.82;;
76903;SDS011;65865;51.698;-0.292;2024-01-30T14:20:36;0.93;;;0.93;;
76903;SDS011;65865;51.698;-0.292;2024-01-30T14:23:02;0.60;;;0.60;;
76903;SDS011;65865;51.698;-0.292;2024-01-30T14:25:29;0.70;;;0.70;;
76903;SDS011;65865;51.698;-0.292;2024-01-30T14:27:55;0.90;;;0.73;;
76903;SDS011;65865;51.698;-0.292;2024-01-30T14:30:21;0.70;;;0.65;;
76903;SDS011;65865;51.698;-0.292;2024-01-30T14:32:47;0.85;;;0.85;;
76903;SDS011;65865;51.698;-0.292;2024-01-30T14:35:14;1.08;;;1.02;;
76903;SDS011;65865;51.698;-0.292;2024-01-30T14:37:40;0.70;;;0.70;;
76903;SDS011;65865;51.698;-0.292;2024-01-30T14:40:08;0.60;;;0.50;;
76903;SDS011;65865;51.698;-0.292;2024-01-30T14:42:36;0.73;;;0.73;;
76903;SDS011;65865;51.698;-0.292;2024-01-30T14:45:06;0.70;;;0.68;;
76903;SDS011;65865;51.698;-0.292;2024-01-30T14:47:34;1.42;;;0.63;;
76903;SDS011;65865;51.698;-0.292;2024-01-30T14:50:05;0.75;;;0.70;;
76903;SDS011;65865;51.698;-0.292;2024-01-30T14:52:31;1.38;;;1.23;;
76903;SDS011;65865;51.698;-0.292;2024-01-30T14:54:57;0.80;;;0.77;;
76903;SDS011;65865;51.698;-0.292;2024-01-30T14:57:31;0.73;;;0.73;;
76903;SDS011;65865;51.698;-0.292;2024-01-30T14:59:59;0.70;;;0.70;;
76903;SDS011;65865;51.698;-0.292;2024-01-30T15:02:25;0.70;;;0.70;;
76903;SDS011;65865;51.698;-0.292;2024-01-30T15:04:52;0.77;;;0.77;;
76903;SDS011;65865;51.698;-0.292;2024-01-30T15:07:18;0.73;;;0.52;;
76903;SDS011;65865;51.698;-0.292;2024-01-30T15:12:15;0.95;;;0.68;;
76903;SDS011;65865;51.698;-0.292;2024-01-30T15:14:46;0.70;;;0.70;;
76903;SDS011;65865;51.698;-0.292;2024-01-30T15:17:17;0.80;;;0.80;;
76903;SDS011;65865;51.698;-0.292;2024-01-30T15:19:47;0.70;;;0.70;;
76903;SDS011;65865;51.698;-0.292;2024-01-30T15:22:13;1.17;;;0.73;;
76903;SDS011;65865;51.698;-0.292;2024-01-30T15:24:41;0.75;;;0.75;;
76903;SDS011;65865;51.698;-0.292;2024-01-30T15:27:09;0.82;;;0.82;;
76903;SDS011;65865;51.698;-0.292;2024-01-30T15:29:39;0.63;;;0.60;;
76903;SDS011;65865;51.698;-0.292;2024-01-30T15:32:06;1.63;;;1.52;;
76903;SDS011;65865;51.698;-0.292;2024-01-30T15:34:32;0.80;;;0.77;;
76903;SDS011;65865;51.698;-0.292;2024-01-30T15:36:59;0.82;;;0.82;;
76903;SDS011;65865;51.698;-0.292;2024-01-30T15:41:54;1.70;;;1.38;;
76903;SDS011;65865;51.698;-0.292;2024-01-30T15:44:20;0.93;;;0.93;;
76903;SDS011;65865;51.698;-0.292;2024-01-30T15:47:00;1.30;;;0.90;;
76903;SDS011;65865;51.698;-0.292;2024-01-30T15:49:27;1.05;;;0.80;;
76903;SDS011;65865;51.698;-0.292;2024-01-30T15:51:54;0.82;;;0.82;;
76903;SDS011;65865;51.698;-0.292;2024-01-30T15:54:21;1.65;;;1.23;;
76903;SDS011;65865;51.698;-0.292;2024-01-30T15:59:15;1.25;;;1.15;;
76903;SDS011;65865;51.698;-0.292;2024-01-30T16:01:45;0.77;;;0.77;;
76903;SDS011;65865;51.698;-0.292;2024-01-30T16:04:22;0.80;;;0.80;;
76903;SDS011;65865;51.698;-0.292;2024-01-30T16:06:50;1.38;;;0.70;;
76903;SDS011;65865;51.698;-0.292;2024-01-30T16:09:18;0.95;;;0.85;;
76903;SDS011;65865;51.698;-0.292;2024-01-30T16:11:45;1.45;;;1.15;;
76903;SDS011;65865;51.698;-0.292;2024-01-30T16:34:30;1.27;;;1.10;;
76903;SDS011;65865;51.698;-0.292;2024-01-30T16:47:27;1.48;;;1.10;;
76903;SDS011;65865;51.698;-0.292;2024-01-30T17:34:17;1.23;;;0.40;;
76903;SDS011;65865;51.698;-0.292;2024-01-30T17:36:50;2.50;;;0.90;;
76903;SDS011;65865;51.698;-0.292;2024-01-30T17:39:16;3.00;;;0.70;;
76903;SDS011;65865;51.698;-0.292;2024-01-30T17:41:42;2.83;;;0.80;;
76903;SDS011;65865;51.698;-0.292;2024-01-30T17:44:09;4.68;;;1.00;;
76903;SDS011;65865;51.698;-0.292;2024-01-30T17:46:36;4.57;;;0.85;;
76903;SDS011;65865;51.698;-0.292;2024-01-30T17:49:03;3.50;;;1.00;;
76903;SDS011;65865;51.698;-0.292;2024-01-30T17:51:31;6.00;;;1.20;;
76903;SDS011;65865;51.698;-0.292;2024-01-30T17:53:58;3.90;;;0.80;;
76903;SDS011;65865;51.698;-0.292;2024-01-30T17:56:24;2.65;;;0.90;;
76903;SDS011;65865;51.698;-0.292;2024-01-30T17:58:50;3.80;;;0.90;;
76903;SDS011;65865;51.698;-0.292;2024-01-30T18:01:16;2.65;;;0.90;;
76903;SDS011;65865;51.698;-0.292;2024-01-30T18:03:44;9.23;;;1.00;;
76903;SDS011;65865;51.698;-0.292;2024-01-30T18:06:14;3.58;;;1.00;;
76903;SDS011;65865;51.698;-0.292;2024-01-30T18:08:44;1.85;;;0.65;;
76903;SDS011;65865;51.698;-0.292;2024-01-30T18:11:10;1.85;;;0.65;;
76903;SDS011;65865;51.698;-0.292;2024-01-30T18:13:40;2.47;;;0.80;;
76903;SDS011;65865;51.698;-0.292;2024-01-30T18:16:06;4.25;;;1.10;;
76903;SDS011;65865;51.698;-0.292;2024-01-30T18:18:33;2.67;;;0.90;;
76903;SDS011;65865;51.698;-0.292;2024-01-30T18:21:11;3.72;;;0.77;;
76903;SDS011;65865;51.698;-0.292;2024-01-30T18:23:40;2.92;;;0.95;;
76903;SDS011;65865;51.698;-0.292;2024-01-30T18:26:07;3.22;;;0.90;;
76903;SDS011;65865;51.698;-0.292;2024-01-30T18:28:33;2.60;;;0.75;;
76903;SDS011;65865;51.698;-0.292;2024-01-30T18:30:59;1.73;;;0.93;;
76903;SDS011;65865;51.698;-0.292;2024-01-30T18:33:26;4.65;;;0.88;;
76903;SDS011;65865;51.698;-0.292;2024-01-30T18:35:54;2.80;;;0.60;;
76903;SDS011;65865;51.698;-0.292;2024-01-30T18:38:21;2.50;;;0.90;;
76903;SDS011;65865;51.698;-0.292;2024-01-30T18:40:47;2.58;;;0.80;;
76903;SDS011;65865;51.698;-0.292;2024-01-30T18:43:13;2.47;;;0.70;;
76903;SDS011;65865;51.698;-0.292;2024-01-30T18:45:40;1.92;;;0.88;;
76903;SDS011;65865;51.698;-0.292;2024-01-30T18:48:06;4.32;;;0.90;;